ADDS METAR Data

Data at: 0255 UTC 21 Jun 2018

METAR for:KFOK (Westhampton/Gabreski, NY, US)
Text:KFOK 210253Z 20003KT 10SM FEW070 BKN090 OVC110 20/17 A2982 RMK AO2 SLP098 T02000172 50002
Temperature: 20.0°C ( 68°F)
Dewpoint: 17.2°C ( 63°F) [RH = 84%]
Pressure (altimeter):29.82 inches Hg (1009.9 mb) [Sea level pressure: 1009.8 mb]
Winds:from the SSW (200 degrees) at 3 MPH (3 knots; 1.5 m/s)
Visibility:10 or more sm (16+ km)
Ceiling:9000 feet AGL
Clouds: few clouds at 7000 feet AGL, broken clouds at 9000 feet AGL, overcast cloud deck at 11000 feet AGL